logo
App data

Sweezy Gunner

Sweezy Gunner is an eye melting, brain bending, mouse squeezing 2D Shoot em up. destroy everything in your path, Upgrade the Sweezy Gunner ship. A Large open World! Travel through the lush green fields, frozen tundra and arid desert. Explore the depths of the many dungeons, caves and temples and collect that tasty loot!
Store | Hub | SteamDB | Site
Developer: Windybeard Publisher: Windybeard
Genre: Action, Indie
Languages: English
Tags: Indie (33), Action (33), Bullet Hell (15), Space (11), Shoot 'Em Up (10), Shooter (9)
Category: Single-player, Steam Achievements, Steam Trading Cards
Release date: May 6, 2014
Price: $1.99 50%
Old userscore: 83% Owners: 20,000 .. 50,000
Followers: 285
Peak concurrent players yesterday: 1
Playtime total: 03:09 (average) 03:26 (median)

Steam Spy is still in beta, so expect major bugs.

Owners data:

Access restricted.

This feature is only available to users with special access rights. Sorry.

If you want to proceed, you need to register or log in first and then back Steam Spy on Patreon. Look for Indie or Pro pledge.

Don't forget to use the same email as on Steam Spy!

Audience in 2 weeks:

Access restricted.

This feature is only available to users with special access rights. Sorry.

If you want to proceed, you need to register or log in first and then back Steam Spy on Patreon. Look for Indie or Pro pledge.

Don't forget to use the same email as on Steam Spy!

Peak daily concurrent players:

CCU data courtesy of SteamDB. Used with permission.

Hourly concurrent players:

Daily Twitch stats:

Hourly Twitch stats:

YouTube:

The views data is based on top 50 videos uploaded last week. Actual number of views might be more than the number shown.

The displayed number of videos uploaded yesterday is limited to 50, so if there were more videos uploaded, the number will still show 50.

If the game has commonly used word as its name (like "FEAR" or "Volume") its number of Youtube views might be wrong.

Games similar to this one:

# Game Release date
Price
Score rank
(Userscore / Metascore)
Owners
Players
Playtime (Median)
1 Gem Wars: Attack of the Jiblets Dec 15, 2015 FreeN/A (N/A)20,000 .. 50,0000%00:00 (00:00)
2 Avalanche 2: Super Avalanche Jun 11, 2015 $4.99N/A (N/A)50,000 .. 100,0000%00:00 (00:00)
3 Marble Duel Nov 12, 2015 $4.99N/A (N/A)50,000 .. 100,0000.82%00:08 (00:02)
4 Meadowland Oct 22, 2014 $3.99N/A (N/A)0 .. 20,0000%00:00 (00:00)
5 The Blue Flamingo Nov 18, 2014 $4.99N/A (N/A/55%)100,000 .. 200,0000%00:00 (00:00)
6 About Love, Hate and the other ones Dec 12, 2014 $6.99N/A (N/A)50,000 .. 100,0000.54%00:01 (00:00)
7 Brother Wings Jan 10, 2017 $0.99N/A (N/A)50,000 .. 100,0000.26%10:05 (03:21)
8 AaAaAA!!! - A Reckless Disregard for Gravity Sep 3, 2009 $9.99N/A (N/A/81%)100,000 .. 200,0000%00:00 (00:00)
9 Days of War Jan 26, 2017 $24.99N/A (N/A)20,000 .. 50,0000%00:00 (00:00)
10 In Between Aug 21, 2015 $11.99N/A (N/A/68%)50,000 .. 100,0000%00:00 (00:00)
11 MOAI 2: Path to Another World Apr 11, 2015 $7.99N/A (N/A)0 .. 20,0000%00:00 (00:00)
12 Quell May 14, 2015 $3.99N/A (N/A)0 .. 20,0000%00:00 (00:00)
13 Shutshimi Aug 25, 2015 $4.99N/A (N/A)50,000 .. 100,0000%00:00 (00:00)
14 REVOLVER360 RE:ACTOR Oct 24, 2014 $9.99N/A (N/A)50,000 .. 100,0000%00:00 (00:00)
15 Pressured Jul 18, 2014 $2.99N/A (N/A)200,000 .. 500,0000.13%02:19 (00:46)
16 Luxor Evolved Mar 1, 2012 $9.99N/A (N/A)50,000 .. 100,0000%00:00 (00:00)
17 The Legions of Rome Sep 16, 2016 $2.99N/A (N/A)0 .. 20,0000%00:00 (00:00)
18 Blitz Breaker Feb 2, 2016 $0.99N/A (N/A)0 .. 20,0000%00:00 (00:00)
19 Age of Castles: Warlords May 15, 2015 $1.99N/A (N/A)0 .. 20,0000%00:00 (00:00)
20 Stephen's Sausage Roll Apr 17, 2016 $29.99N/A (N/A/90%)20,000 .. 50,0000%00:00 (00:00)
21 Castle Jan 7, 2015 $4.99N/A (N/A)50,000 .. 100,0000%00:00 (00:00)
22 Laserlife Sep 22, 2015 $9.99N/A (N/A)0 .. 20,0000%00:00 (00:00)
23 Cyto Jul 10, 2014 $3.99N/A (N/A)20,000 .. 50,0000%00:00 (00:00)
24 On Rusty Trails Jun 13, 2016 $12.99N/A (N/A/77%)50,000 .. 100,0000%00:00 (00:00)
25 Idle Evolution Apr 3, 2017 $4.99N/A (N/A)0 .. 20,0000%00:00 (00:00)
26 Metal Drift Oct 22, 2009 $9.99N/A (N/A)20,000 .. 50,0000%00:00 (00:00)
27 Melting Hearts: Our Love Will Grow 2 Apr 29, 2016 N/AN/A (N/A)20,000 .. 50,0000%00:00 (00:00)
28 Robot vs Birds Zombies Jun 1, 2013 $0.99N/A (N/A)0 .. 20,0002.44%00:01 (00:00)
29 Boss Monster Apr 28, 2016 $4.99N/A (N/A)20,000 .. 50,0000%00:00 (00:00)
30 Stay Alight Mar 2, 2015 $3.99N/A (N/A)50,000 .. 100,0000%00:00 (00:00)
31 National Zombie Park Dec 15, 2014 $0.99N/A (N/A)100,000 .. 200,0000%00:00 (00:00)
32 GamersGoMakers Aug 8, 2014 $9.99N/A (N/A)0 .. 20,0000%00:00 (00:00)
33 Automation - The Car Company Tycoon Game Mar 12, 2015 $29.99N/A (N/A)50,000 .. 100,00016.85%01:58 (01:23)
34 Highborn Feb 19, 2013 $1.99N/A (N/A)0 .. 20,0000%00:00 (00:00)
35 ISLANDS: Non-Places Nov 17, 2016 $4.99N/A (N/A)20,000 .. 50,0000%00:00 (00:00)
36 Narcissu 10th Anniversary Anthology Project Jan 27, 2016 $2.99N/A (N/A)50,000 .. 100,0000%00:00 (00:00)
37 Game Type Sep 23, 2015 $2.99N/A (N/A)0 .. 20,0000%00:00 (00:00)
38 Pester Jan 25, 2013 $0.49N/A (N/A)100,000 .. 200,0000%00:00 (00:00)
39 Cubot Jan 8, 2015 $1.99N/A (N/A)20,000 .. 50,0000%00:00 (00:00)
40 SinaRun Oct 26, 2015 $2.99N/A (N/A)20,000 .. 50,0000%00:00 (00:00)
41 Hidden in Plain Sight Jul 16, 2014 $5.99N/A (N/A)20,000 .. 50,0000%00:00 (00:00)
42 Diadra Empty Jul 21, 2015 $5.99N/A (N/A)20,000 .. 50,0000%00:00 (00:00)
43 Winexy Jan 13, 2017 $0.49N/A (N/A)50,000 .. 100,0000%00:00 (00:00)
44 Luxor: 5th Passage Jan 25, 2011 $9.99N/A (N/A)50,000 .. 100,0000%00:00 (00:00)
45 Omega Agent May 4, 2016 $2.99N/A (N/A)0 .. 20,0000%00:00 (00:00)
46 Arclight Cascade Aug 25, 2015 FreeN/A (N/A)0 .. 20,0000%00:00 (00:00)
47 Botology Jun 24, 2015 $0.49N/A (N/A)50,000 .. 100,0000.28%02:05 (00:41)
48 Flame Over May 28, 2015 $11.99N/A (N/A)20,000 .. 50,0000%00:00 (00:00)
49 Prelogate Dec 10, 2014 $3.99N/A (N/A)0 .. 20,0000%00:00 (00:00)
50 Jamsouls Aug 24, 2014 $3.99N/A (N/A)0 .. 20,0000%00:00 (00:00)
51 The Floor is Jelly May 30, 2014 $9.99N/A (N/A/83%)20,000 .. 50,0000%00:00 (00:00)
52 Cloudberry Kingdom Aug 2, 2013 $9.99N/A (N/A/67%)20,000 .. 50,0000%00:00 (00:00)
53 Cold Waters Jun 5, 2017 $39.99N/A (N/A)50,000 .. 100,00015.79%05:41 (02:45)
54 CALENDULA Feb 2, 2016 $6.99N/A (N/A/67%)20,000 .. 50,0000%00:00 (00:00)
55 Way of Gold and Steel Aug 17, 2015 $8.99N/A (N/A)20,000 .. 50,0000%00:00 (00:00)
56 Drizzlepath Mar 12, 2015 $2.99N/A (N/A)0 .. 20,0000%00:00 (00:00)
57 Death Goat Jun 7, 2016 $2.99N/A (N/A)20,000 .. 50,0000%00:00 (00:00)
58 Zenzizenzic Jul 23, 2015 $9.99N/A (N/A/85%)0 .. 20,0003.7%00:01 (00:00)
59 Point Perfect Jul 17, 2014 $4.99N/A (N/A)20,000 .. 50,0000%00:00 (00:00)
60 PANORAMICAL Sep 17, 2015 $9.99N/A (N/A)0 .. 20,0000%00:00 (00:00)
61 I Expect You To Die Apr 25, 2017 $24.99N/A (N/A/77%)50,000 .. 100,0003.33%03:31 (02:47)
62 Glowfish Sep 30, 2011 $9.99N/A (N/A)20,000 .. 50,0000%00:00 (00:00)
63 Prehistoric Tales May 26, 2016 $2.99N/A (N/A)0 .. 20,0000%00:00 (00:00)
64 Jeeboman Apr 5, 2016 $9.99N/A (N/A)0 .. 20,0000%00:00 (00:00)
65 Red Goblin: Cursed Forest May 15, 2015 $4.99N/A (N/A)20,000 .. 50,0000%00:00 (00:00)
66 Astro Emporia Feb 2, 2015 $0.99N/A (N/A)20,000 .. 50,0000%00:00 (00:00)
67 Square Heroes Apr 9, 2015 $4.99N/A (N/A)20,000 .. 50,0000%00:00 (00:00)
68 room13 Jan 13, 2017 $7.99N/A (N/A)20,000 .. 50,0000%00:00 (00:00)
69 Swipecart May 8, 2014 $2.99N/A (N/A)100,000 .. 200,0000%00:00 (00:00)
70 Rigonauts Aug 7, 2012 $9.99N/A (N/A/60%)0 .. 20,0000%00:00 (00:00)
71 Machine Hunt May 15, 2017 $2.99N/A (N/A)100,000 .. 200,0005.36%02:35 (02:51)
72 Until I Have You Apr 4, 2016 $13.99N/A (N/A)0 .. 20,0000%00:00 (00:00)
73 Korwin The Game Sep 19, 2015 $1.99N/A (N/A)0 .. 20,0000%00:00 (00:00)
74 Unium Feb 3, 2015 $1.99N/A (N/A)0 .. 20,0000%00:00 (00:00)
75 Unhack Feb 20, 2014 $3.99N/A (N/A)20,000 .. 50,0000%00:00 (00:00)
76 Letter Quest: Grimm's Journey Nov 20, 2014 $7.99N/A (N/A/73%)50,000 .. 100,0000%00:00 (00:00)
77 Cute Things Dying Violently Sep 2, 2015 $2.99N/A (N/A)0 .. 20,0000%00:00 (00:00)
78 Strata May 29, 2014 $7.99N/A (N/A)50,000 .. 100,0000.77%00:13 (00:04)
79 Dungeon Painter Studio Feb 26, 2017 $14.99N/A (N/A)20,000 .. 50,00013.04%06:14 (06:11)
80 Governor of Poker 2 - Premium Edition Oct 11, 2010 $14.99N/A (N/A)20,000 .. 50,0000%00:00 (00:00)
81 Autumn May 14, 2016 $2.99N/A (N/A)100,000 .. 200,0000%00:00 (00:00)
82 12 Labours of Hercules IV: Mother Nature (Platinum Edition) Dec 25, 2015 $2.99N/A (N/A)20,000 .. 50,0000.85%01:46 (00:35)
83 Demon Hearts Aug 7, 2015 $3.99N/A (N/A)0 .. 20,0000%00:00 (00:00)
84 Streets of Chaos Jan 23, 2015 N/AN/A (N/A)100,000 .. 200,0000.19%03:01 (01:00)
85 1931: Scheherazade at the Library of Pergamum Mar 26, 2015 $14.99N/A (N/A)20,000 .. 50,0000%00:00 (00:00)
86 Bloop Reloaded Feb 6, 2015 $9.99N/A (N/A)100,000 .. 200,0000.2%03:12 (01:04)
87 Farm Frenzy 4 Aug 1, 2013 $6.99N/A (N/A)20,000 .. 50,0002.33%03:12 (01:04)
88 Divide By Sheep Jul 2, 2015 $4.99N/A (N/A/83%)100,000 .. 200,0000%00:00 (00:00)
89 Abduction Bit Nov 15, 2016 $0.99N/A (N/A)0 .. 20,0000%00:00 (00:00)
90 Sophie's Curse Mar 16, 2016 $4.99N/A (N/A)50,000 .. 100,0000%00:00 (00:00)
91 Super Star Path Jun 22, 2015 $4.99N/A (N/A)20,000 .. 50,0000%00:00 (00:00)
92 The Reject Demon: Toko Chapter 0 — Prelude May 9, 2015 $4.99N/A (N/A)20,000 .. 50,0001.75%00:45 (00:15)
93 Wars Across The World May 4, 2017 $9.99N/A (N/A)0 .. 20,0000%00:00 (00:00)
94 Vampires: Guide Them to Safety! Oct 22, 2014 $4.99N/A (N/A)0 .. 20,0000%00:00 (00:00)
95 Super Lemonade Factory Mar 15, 2012 $3.99N/A (N/A)20,000 .. 50,0001.82%04:32 (01:30)
96 Viking Brothers Apr 23, 2014 $9.99N/A (N/A)0 .. 20,0000%00:00 (00:00)
97 The guard of dungeon Mar 7, 2017 $6.99N/A (N/A)0 .. 20,0000%00:00 (00:00)
98 Arcadia Dec 2, 2010 $4.99N/A (N/A)0 .. 20,0000%00:00 (00:00)
99 The Dolls: Reborn May 25, 2016 $4.99N/A (N/A)50,000 .. 100,0001.47%01:27 (01:27)
100 Lift It Jan 20, 2017 $4.99N/A (N/A)50,000 .. 100,0000%00:00 (00:00)
101 Aero's Quest Jun 8, 2015 $4.99N/A (N/A)0 .. 20,0000%00:00 (00:00)
102 GunWorld Nov 16, 2014 $1.99N/A (N/A)20,000 .. 50,0000%00:00 (00:00)
103 Steam and Metal Feb 9, 2015 $4.99N/A (N/A)0 .. 20,0000%00:00 (00:00)
104 A Good Snowman Is Hard To Build Feb 25, 2015 $9.99N/A (N/A)20,000 .. 50,0005.56%01:48 (00:36)
105 Spy Chameleon - RGB Agent Jun 11, 2014 $4.99N/A (N/A)20,000 .. 50,0000%00:00 (00:00)
106 Aqua Kitty - Milk Mine Defender Feb 3, 2014 $6.99N/A (N/A)20,000 .. 50,0000%00:00 (00:00)
107 Masky Dec 16, 2016 $0.99N/A (N/A)20,000 .. 50,0000%00:00 (00:00)
108 A grande bagunça espacial - The big space mess Apr 5, 2016 $0.99N/A (N/A)200,000 .. 500,0000.93%28:41 (52:13)
109 Fingered Aug 18, 2015 $1.87N/A (N/A)50,000 .. 100,0000%00:00 (00:00)
110 Cursed Sight Aug 3, 2015 $5.99N/A (N/A)0 .. 20,0000%00:00 (00:00)
111 HyperRogue Jan 16, 2015 $4.99N/A (N/A)20,000 .. 50,0000%00:00 (00:00)
112 Over The Void Nov 11, 2014 $4.99N/A (N/A)20,000 .. 50,0000%00:00 (00:00)
113 Wildlife Park 2 - Horses Oct 12, 2007 $3.99N/A (N/A)0 .. 20,0000%00:00 (00:00)
114 Wildlife Park 3 May 12, 2014 $9.99N/A (N/A)50,000 .. 100,0000.88%01:29 (00:29)
115 Pixel Shopkeeper Jul 20, 2017 $6.99N/A (N/A)0 .. 20,0000%00:00 (00:00)
116 Ancients of Ooga May 20, 2011 $9.99N/A (N/A)20,000 .. 50,0000%00:00 (00:00)
117 Citadel Aug 17, 2016 N/AN/A (N/A)0 .. 20,0000%00:00 (00:00)
118 Cibele Nov 2, 2015 $8.99N/A (N/A/71%)50,000 .. 100,0000%00:00 (00:00)
119 Power of Love Jul 21, 2015 $0.99N/A (N/A)20,000 .. 50,0000%00:00 (00:00)
120 Dodge Mar 16, 2015 $1.99N/A (N/A)0 .. 20,0000%00:00 (00:00)
121 VRC PRO Mar 24, 2015 $44.99N/A (N/A)0 .. 20,0009.09%00:01 (00:00)
122 Quantum Rush Champions Dec 4, 2014 $9.99N/A (N/A)20,000 .. 50,0000%00:00 (00:00)
123 Ichi Jun 12, 2014 $4.99N/A (N/A)50,000 .. 100,0000%00:00 (00:00)
124 Grapple Mar 9, 2015 $6.99N/A (N/A)20,000 .. 50,0000%00:00 (00:00)
125 King Kaiju Jan 31, 2017 $4.99N/A (N/A)0 .. 20,0000%00:00 (00:00)
126 Party Saboteurs: After Party Mar 31, 2016 $9.99N/A (N/A)0 .. 20,0000%00:00 (00:00)
127 Painters Guild Sep 1, 2015 $9.99N/A (N/A)20,000 .. 50,0000%00:00 (00:00)
128 in Space Apr 27, 2015 $0.99N/A (N/A)0 .. 20,0000%00:00 (00:00)
129 Bob Was Hungry Aug 19, 2015 $0.99N/A (N/A)50,000 .. 100,0000%00:00 (00:00)
130 Thief Town Sep 26, 2014 $7.99N/A (N/A)20,000 .. 50,0000%00:00 (00:00)
131 LogiGun Aug 1, 2012 $4.99N/A (N/A)0 .. 20,0000%00:00 (00:00)
132 Sokobond Jul 21, 2014 $9.99N/A (N/A/82%)20,000 .. 50,0001.19%00:08 (00:02)
133 Running Sausage Mar 19, 2017 $0.99N/A (N/A)200,000 .. 500,0000%00:00 (00:00)
134 Blocks That Matter Aug 19, 2011 $4.99N/A (N/A/72%)200,000 .. 500,0000%00:00 (00:00)
135 Straimium Immortaly Oct 10, 2016 $8.99N/A (N/A)0 .. 20,0000%00:00 (00:00)
136 Pro Gamer Manager Apr 28, 2016 $9.99N/A (N/A)20,000 .. 50,0001.56%00:01 (00:00)
137 ASCII Attack Mar 16, 2016 $2.99N/A (N/A)0 .. 20,0000%00:00 (00:00)
138 Venusian Vengeance Oct 25, 2012 $3.99N/A (N/A)20,000 .. 50,0000%00:00 (00:00)
139 Mech Marines: Steel March Jan 9, 2015 $7.99N/A (N/A)0 .. 20,0000%00:00 (00:00)
140 This Starry Midnight We Make Jun 1, 2015 $9.99N/A (N/A)0 .. 20,0000%00:00 (00:00)
141 Hippocampal: The White Sofa May 27, 2014 $4.99N/A (N/A)0 .. 20,0000%00:00 (00:00)
142 Tribloos 2 Jan 12, 2013 $4.99N/A (N/A)100,000 .. 200,0000.21%02:12 (00:44)
143 Golf for Workgroups Apr 6, 2017 $4.99N/A (N/A)0 .. 20,0000%00:00 (00:00)
144 Burst Mar 14, 2016 $1.99N/A (N/A)50,000 .. 100,0000.25%04:02 (01:20)
145 Sentinel 4: Dark Star Aug 13, 2015 $6.99N/A (N/A)0 .. 20,0000%00:00 (00:00)
146 Farm Frenzy: Hurricane Season Apr 1, 2015 $6.99N/A (N/A)0 .. 20,0000%00:00 (00:00)
147 Pixel Puzzles 2: Birds Feb 20, 2015 $9.99N/A (N/A)200,000 .. 500,0000.18%05:37 (01:52)
148 Rooms: The Unsolvable Puzzle May 1, 2015 $14.99N/A (N/A/66%)0 .. 20,0000%00:00 (00:00)
149 Metrocide Oct 20, 2014 $12.99N/A (N/A/68%)20,000 .. 50,0000%00:00 (00:00)
150 Crazy Plant Shop Aug 4, 2014 $4.99N/A (N/A)20,000 .. 50,0000%00:00 (00:00)
151 Puzzler World 2 Oct 24, 2011 $4.99N/A (N/A)20,000 .. 50,0000%00:00 (00:00)
152 Richie's Plank Experience Dec 18, 2017 $14.99N/A (N/A)20,000 .. 50,0004.17%00:22 (00:09)
153 Herding Dog Dec 25, 2015 $2.99N/A (N/A)0 .. 20,0000%00:00 (00:00)

Tags over time:

Access restricted.

This feature is only available to users with special access rights. Sorry.

If you want to proceed, you need to register or log in first and then back Steam Spy on Patreon. Look for Indie or Pro pledge.

Don't forget to use the same email as on Steam Spy!

Owners of this game also own:

Access restricted.

This feature is only available to users with special access rights. Sorry.

If you want to proceed, you need to register or log in first and then back Steam Spy on Patreon. Look for Indie or Pro pledge.

Don't forget to use the same email as on Steam Spy!

Playtime distribution:

Access restricted.

This feature is only available to users with special access rights. Sorry.

If you want to proceed, you need to register or log in first and then back Steam Spy on Patreon. Look for Indie or Pro pledge.

Don't forget to use the same email as on Steam Spy!

Playtime (2 weeks):

Access restricted.

This feature is only available to users with special access rights. Sorry.

If you want to proceed, you need to register or log in first and then back Steam Spy on Patreon. Look for Indie or Pro pledge.

Don't forget to use the same email as on Steam Spy!

User reviews:

Login required.

Please register or log in to see this information.